Briefing drone pour Saint-mamet-la-salvetat

Rechercher une autre localisation

Conditions de vol :


Nous sommes le : Dimanche 29 mai 2022
Il est 03:15 UTC (05:15 LT)

Lever de soleil : 03:43 UTC (05:43 LT)
Coucher de soleil : 19:53 UTC (21:53 LT)

Météo

L'essentiel des conditions de vol

VIGILANCE MÉTÉO FRANCE - Cantal (15)
Pas de vigilances particulieres
CARTE TEMSI
CARTES DES FRONTS
METAR de LFLW
LFLW 290300Z AUTO 00000KT CAVOK 04/02 Q1012

Date d'émission: 29/05/2022
Heure d'émission: 03:00 UTC
Vent: Calme
Visibilité horizontale: > 10 km
Plafond : Plafond et visibilité OK (CAVOK)
Température: 4 °C
Point de rosée: 2 °C
Humidité: 87%
Pression (QNH): 1012 hPa
Prévision 24h pour Aurillac (9 km)
Vent : 74° pour 2 KT (7 km/h)
Temperature Maxi: 7 °C
Temperature Min: 7 °C
Humidité : 55%
Condition : Ciel dégagé



Warning: count(): Parameter must be an array or an object that implements Countable in /homepages/6/d509196549/htdocs/droneoxygene/briefing.php on line 743
WEBCAM POUR SAINT-MAMET-LA-SALVETAT

Réglementation

Voler en sécurité

CARTES AERONAUTIQUE 1/500.000
CARTES VAC (LFLW)
SUP AIP




Chargement des AIP...
NOTAM (SAINT-MAMET-LA-SALVETAT + Terrain à proximité / FIR )




Chargement des NOTAMS...
CONTACT PREFECTURE 15


Avertissement : Les données mises à disposition sont indicatives. Oxygène Drone ne pourra être tenu responsable de dégâts causés aux biens et aux personnes.